Time;durP1;ratioP1;P1;durP2;ratioP2;P2;SDS_P1;SDS_P2;PMS_P1;PMS_P2;Temp;Humidity;BMP_temperature;BMP_pressure;BME280_temperature;BME280_humidity;BME280_pressure;Samples;Min_cycle;Max_cycle;Signal;HPM_P1;HPM_P2
2021/06/22 00:01:38;;;;;;;10.45;4.65;;;15.50;99.90;;;;;;6223031;23;20409;-96
2021/06/22 00:04:13;;;;;;;15.50;4.50;;;15.40;99.90;;;;;;6226582;23;20461;-95
2021/06/22 00:06:40;;;;;;;14.60;4.43;;;15.20;99.90;;;;;;6224956;23;20382;-94
2021/06/22 00:09:07;;;;;;;10.73;4.83;;;15.20;99.90;;;;;;6224661;23;20456;-96
2021/06/22 00:11:39;;;;;;;9.70;4.55;;;15.10;99.90;;;;;;6226194;23;20409;-96
2021/06/22 00:14:12;;;;;;;12.75;4.68;;;14.90;99.90;;;;;;6223846;23;20393;-95
2021/06/22 00:16:39;;;;;;;25.70;6.22;;;14.90;99.90;;;;;;6221544;23;20389;-94
2021/06/22 00:19:07;;;;;;;19.77;6.68;;;14.90;99.90;;;;;;6220822;23;20390;-95
2021/06/22 00:21:34;;;;;;;18.63;7.22;;;14.90;99.90;;;;;;6223223;23;20461;-96
2021/06/22 00:24:07;;;;;;;363.67;27.23;;;14.90;99.90;;;;;;6223792;23;20396;-96
2021/06/22 00:26:38;;;;;;;1945.60;98.93;;;14.90;99.90;;;;;;6221666;23;20381;-95
2021/06/22 00:29:08;;;;;;;1999.90;100.90;;;14.90;99.90;;;;;;6222480;23;20469;-93
2021/06/22 00:31:35;;;;;;;1436.43;69.45;;;14.90;99.90;;;;;;6224656;23;20406;-95
2021/06/22 00:34:05;;;;;;;1383.15;89.97;;;14.90;99.90;;;;;;6224377;23;20359;-95
2021/06/22 00:36:32;;;;;;;1731.85;95.97;;;15.00;99.90;;;;;;6222363;23;20385;-94
2021/06/22 00:38:59;;;;;;;1999.90;110.10;;;15.00;99.90;;;;;;6222865;23;20389;-94
2021/06/22 00:41:26;;;;;;;1999.90;143.80;;;15.10;99.90;;;;;;6222849;23;20386;-96
2021/06/22 00:44:11;;;;;;;1940.53;100.65;;;15.10;99.90;;;;;;6223375;23;20405;-95
2021/06/22 00:46:41;;;;;;;1999.90;119.70;;;15.10;99.90;;;;;;6222985;23;20466;-95
2021/06/22 00:49:08;;;;;;;1948.07;87.72;;;15.10;99.90;;;;;;6222569;23;20388;-95
2021/06/22 00:51:38;;;;;;;1999.90;100.35;;;15.10;99.90;;;;;;6221917;23;20382;-95
2021/06/22 00:54:05;;;;;;;1999.90;111.15;;;15.20;99.90;;;;;;6221834;23;20481;-95
2021/06/22 00:56:32;;;;;;;1999.90;84.90;;;15.20;99.90;;;;;;6221761;23;20413;-96
2021/06/22 00:59:00;;;;;;;1999.90;84.30;;;15.20;99.90;;;;;;6222388;23;20386;-95
2021/06/22 01:01:27;;;;;;;1936.80;73.78;;;15.20;99.90;;;;;;6221515;23;20460;-94
2021/06/22 01:03:54;;;;;;;1379.93;49.47;;;15.30;99.90;;;;;;6221400;23;20470;-95
2021/06/22 01:06:25;;;;;;;1423.15;50.22;;;15.30;99.90;;;;;;6221411;23;20388;-94
2021/06/22 01:08:53;;;;;;;974.60;32.83;;;15.20;99.90;;;;;;6221565;23;20385;-96
2021/06/22 01:11:20;;;;;;;1520.97;50.60;;;15.20;99.90;;;;;;6222076;23;20528;-94
2021/06/22 01:13:53;;;;;;;1145.03;39.67;;;15.20;99.90;;;;;;6222947;23;20878;-95
2021/06/22 01:16:26;;;;;;;772.05;24.77;;;15.20;99.90;;;;;;6221407;23;20386;-95
2021/06/22 01:19:01;;;;;;;1012.25;34.63;;;15.30;99.90;;;;;;6222625;23;20946;-96
2021/06/22 01:21:31;;;;;;;954.08;33.22;;;15.30;99.90;;;;;;6222935;23;20382;-94
2021/06/22 01:24:07;;;;;;;941.92;34.72;;;15.30;99.90;;;;;;6222313;23;20874;-95
2021/06/22 01:26:36;;;;;;;971.13;38.42;;;15.40;99.90;;;;;;6222572;23;20382;-96
2021/06/22 01:29:07;;;;;;;738.73;29.10;;;15.40;99.90;;;;;;6222655;23;20484;-93
2021/06/22 01:31:35;;;;;;;1152.22;45.58;;;15.50;99.90;;;;;;6222825;23;20389;-93
2021/06/22 01:34:05;;;;;;;978.78;40.70;;;15.50;99.90;;;;;;6225158;23;20386;-94
2021/06/22 01:36:34;;;;;;;1052.05;42.42;;;15.60;99.90;;;;;;6224402;23;20382;-95
2021/06/22 01:39:04;;;;;;;1028.88;40.92;;;15.50;99.90;;;;;;6224452;23;20489;-96
2021/06/22 01:41:31;;;;;;;1073.60;42.47;;;15.60;99.90;;;;;;6249729;23;20377;-94
2021/06/22 01:43:59;;;;;;;885.05;34.85;;;15.60;99.90;;;;;;6223434;23;20404;-94
2021/06/22 01:46:27;;;;;;;1099.03;37.83;;;15.60;99.90;;;;;;6197690;23;21723;-94
2021/06/22 01:48:54;;;;;;;921.75;38.45;;;15.60;99.90;;;;;;6223758;23;20467;-94
2021/06/22 01:51:23;;;;;;;1331.90;58.80;;;15.70;99.90;;;;;;6224783;23;20385;-96
2021/06/22 01:53:56;;;;;;;1649.25;64.68;;;15.70;99.90;;;;;;6224182;23;20386;-94
2021/06/22 01:56:26;;;;;;;1904.53;70.73;;;15.70;99.90;;;;;;6258085;22;20483;-96
2021/06/22 01:58:54;;;;;;;1937.50;71.30;;;15.70;99.90;;;;;;6315065;22;20399;-96
2021/06/22 02:01:21;;;;;;;1628.72;69.60;;;15.70;99.90;;;;;;6315920;22;20475;-94
2021/06/22 02:03:52;;;;;;;1999.90;88.15;;;15.80;99.90;;;;;;6290916;22;20408;-94
2021/06/22 02:06:19;;;;;;;1552.00;65.63;;;15.80;99.90;;;;;;6315828;22;20401;-95
2021/06/22 02:08:46;;;;;;;1999.90;94.38;;;15.70;99.90;;;;;;6316114;22;20383;-95
2021/06/22 02:11:15;;;;;;;1999.90;79.22;;;15.80;99.90;;;;;;6315619;22;20391;-94
2021/06/22 02:13:42;;;;;;;1999.90;83.27;;;15.80;99.90;;;;;;6315533;22;20479;-94
2021/06/22 02:16:09;;;;;;;1999.90;99.53;;;15.80;99.90;;;;;;6316166;22;20869;-94
2021/06/22 02:18:40;;;;;;;1999.90;98.80;;;15.80;99.90;;;;;;6316555;22;20368;-94
2021/06/22 02:21:07;;;;;;;1999.90;93.63;;;15.70;99.90;;;;;;6314208;22;20869;-94
2021/06/22 02:23:35;;;;;;;1999.90;94.38;;;15.70;99.90;;;;;;6316149;22;20876;-94
2021/06/22 02:26:03;;;;;;;1806.97;79.28;;;15.70;99.90;;;;;;6317568;22;20365;-95
2021/06/22 02:28:31;;;;;;;1727.30;69.33;;;15.70;99.90;;;;;;6314953;22;20432;-95
2021/06/22 02:30:58;;;;;;;1999.90;100.18;;;15.60;99.90;;;;;;6313908;22;20399;-94
2021/06/22 02:33:30;;;;;;;1999.90;76.10;;;15.60;99.90;;;;;;6316614;22;20361;-95
2021/06/22 02:35:58;;;;;;;1587.97;54.88;;;15.50;99.90;;;;;;6316876;22;20448;-95
2021/06/22 02:38:25;;;;;;;1381.57;48.27;;;15.30;99.90;;;;;;6316935;22;20377;-94
2021/06/22 02:40:52;;;;;;;1416.50;49.55;;;15.30;99.90;;;;;;6318755;22;20957;-94
2021/06/22 02:43:19;;;;;;;1639.07;52.58;;;15.20;99.90;;;;;;6319043;22;20408;-94
2021/06/22 02:45:47;;;;;;;1251.78;44.90;;;15.10;99.90;;;;;;6315907;22;20387;-96
2021/06/22 02:48:14;;;;;;;1654.97;52.90;;;15.10;99.90;;;;;;6317913;22;20456;-95
2021/06/22 02:50:42;;;;;;;1114.18;38.33;;;15.10;99.90;;;;;;6316436;22;20381;-95
2021/06/22 02:53:09;;;;;;;1214.43;47.33;;;14.90;99.90;;;;;;6315367;22;20408;-95
2021/06/22 02:55:37;;;;;;;956.15;33.13;;;14.90;99.90;;;;;;6313617;22;20380;-95
2021/06/22 02:58:05;;;;;;;1357.75;46.97;;;14.90;99.90;;;;;;6315972;22;20361;-94
2021/06/22 03:00:32;;;;;;;1299.03;49.00;;;14.90;99.90;;;;;;6314568;22;20388;-95
2021/06/22 03:02:59;;;;;;;879.50;36.38;;;14.90;99.90;;;;;;6314255;22;20383;-95
2021/06/22 03:05:27;;;;;;;884.53;36.83;;;14.90;99.90;;;;;;6316034;22;20381;-94
2021/06/22 03:07:55;;;;;;;1091.93;44.50;;;14.80;99.90;;;;;;6314434;22;20861;-94
2021/06/22 03:10:23;;;;;;;1046.57;41.05;;;14.80;99.90;;;;;;6314526;22;20865;-94
2021/06/22 03:12:51;;;;;;;1089.32;46.88;;;14.80;99.90;;;;;;6313436;22;20374;-95
2021/06/22 03:15:20;;;;;;;934.85;41.17;;;14.80;99.90;;;;;;6314507;22;20392;-93
2021/06/22 03:17:50;;;;;;;1010.58;46.72;;;14.80;99.90;;;;;;6315366;22;20448;-94
2021/06/22 03:20:18;;;;;;;1393.05;59.22;;;14.80;99.90;;;;;;6314309;22;20380;-94
2021/06/22 03:22:45;;;;;;;1244.85;54.85;;;14.70;99.90;;;;;;6313985;22;20397;-94
2021/06/22 03:25:13;;;;;;;1375.97;58.85;;;14.70;99.90;;;;;;6316514;22;20389;-94
2021/06/22 03:27:41;;;;;;;1502.22;59.90;;;14.70;99.90;;;;;;6313916;22;20455;-94
2021/06/22 03:30:11;;;;;;;1578.28;65.82;;;14.80;99.90;;;;;;6314355;22;20444;-95
2021/06/22 03:32:39;;;;;;;1105.47;53.63;;;14.70;99.90;;;;;;6315083;22;20452;-94
2021/06/22 03:35:10;;;;;;;1362.97;71.63;;;14.80;99.90;;;;;;6311705;22;20373;-95
2021/06/22 03:37:37;;;;;;;1330.93;62.47;;;14.70;99.90;;;;;;6312652;22;20422;-95
2021/06/22 03:40:07;;;;;;;1516.32;70.75;;;14.70;99.90;;;;;;6311999;22;20377;-95
2021/06/22 03:42:35;;;;;;;1608.38;82.90;;;14.70;99.90;;;;;;6312881;22;20381;-95
2021/06/22 03:45:08;;;;;;;1975.72;92.63;;;14.70;99.90;;;;;;6317366;22;20393;-95
2021/06/22 03:47:58;;;;;;;1939.07;94.57;;;14.70;99.90;;;;;;6318140;22;20386;-96
2021/06/22 03:50:29;;;;;;;1999.90;116.32;;;14.70;99.90;;;;;;6315530;22;20497;-96
2021/06/22 03:55:57;;;;;;;1999.90;111.25;;;14.70;99.90;;;;;;6343930;22;20395;-95
2021/06/22 03:58:34;;;;;;;1999.90;130.15;;;14.60;99.90;;;;;;6314976;22;20373;-95
2021/06/22 04:01:11;;;;;;;1999.90;110.38;;;14.60;99.90;;;;;;6316376;22;20384;-95
2021/06/22 04:03:41;;;;;;;1999.90;118.85;;;14.60;99.90;;;;;;6314777;22;20419;-96
2021/06/22 04:06:27;;;;;;;1999.90;113.07;;;14.50;99.90;;;;;;6318155;22;20380;-96
2021/06/22 04:09:25;;;;;;;1999.90;123.43;;;14.60;99.90;;;;;;6319032;22;20844;-96
2021/06/22 04:12:37;;;;;;;1999.90;135.38;;;14.60;99.90;;;;;;6320667;22;20446;-96
2021/06/22 04:15:32;;;;;;;1999.90;135.10;;;14.70;99.90;;;;;;6313791;22;20890;-96
2021/06/22 04:25:27;;;;;;;1999.90;145.38;;;14.60;99.90;;;;;;6243934;22;20784;-96
2021/06/22 04:31:53;;;;;;;1918.60;109.13;;;14.50;99.90;;;;;;6249290;23;20454;-96
2021/06/22 04:34:42;;;;;;;1999.90;126.57;;;14.60;99.90;;;;;;6243085;23;20370;-96
2021/06/22 04:40:16;;;;;;;1999.90;130.05;;;14.70;99.90;;;;;;6212795;23;20411;-96
2021/06/22 04:43:05;;;;;;;1999.90;129.40;;;14.60;99.90;;;;;;6187296;23;20405;-96
2021/06/22 04:45:49;;;;;;;1999.90;159.18;;;14.60;99.90;;;;;;6110886;23;20381;-95
2021/06/22 04:48:28;;;;;;;1999.90;139.00;;;14.60;99.90;;;;;;6185063;23;20397;-94
2021/06/22 04:50:58;;;;;;;1999.90;146.38;;;14.70;99.90;;;;;;6160386;23;20396;-95
2021/06/22 04:53:26;;;;;;;1999.90;123.28;;;14.70;99.90;;;;;;6183436;23;20467;-95
2021/06/22 04:55:54;;;;;;;1834.75;103.32;;;14.70;99.90;;;;;;6183201;23;20389;-95
2021/06/22 04:58:28;;;;;;;1999.90;143.98;;;14.70;99.90;;;;;;6183271;23;20413;-96
2021/06/22 05:01:21;;;;;;;1999.90;132.15;;;14.70;99.90;;;;;;6183649;23;20423;-96
2021/06/22 05:03:50;;;;;;;1999.90;144.82;;;14.80;99.90;;;;;;6042365;23;20410;-95
2021/06/22 05:06:18;;;;;;;1999.90;170.75;;;14.80;99.90;;;;;;6065867;23;20420;-96
2021/06/22 05:08:50;;;;;;;1999.90;135.00;;;14.80;99.90;;;;;;6067882;23;20392;-96
2021/06/22 05:11:20;;;;;;;1999.90;168.75;;;14.80;99.90;;;;;;6067830;23;20407;-96
2021/06/22 05:13:48;;;;;;;1999.90;126.47;;;14.80;99.90;;;;;;6082655;23;20522;-96
2021/06/22 05:16:17;;;;;;;1996.05;130.18;;;14.90;99.90;;;;;;6071024;23;20473;-96
2021/06/22 05:18:48;;;;;;;1999.90;132.13;;;14.90;99.90;;;;;;6074528;23;20402;-95
2021/06/22 05:21:29;;;;;;;954.22;87.95;;;14.90;99.90;;;;;;6076462;23;20474;-95
2021/06/22 05:24:03;;;;;;;1224.60;100.18;;;15.00;99.90;;;;;;6075760;23;20501;-96
2021/06/22 05:26:30;;;;;;;317.02;58.67;;;15.10;99.90;;;;;;6073461;23;20401;-95
2021/06/22 05:28:58;;;;;;;488.25;65.25;;;15.00;99.90;;;;;;6071728;23;20473;-95
2021/06/22 05:37:04;;;;;;;1999.90;137.55;;;15.10;99.90;;;;;;6249162;23;20475;-96
2021/06/22 05:39:50;;;;;;;1772.22;117.22;;;15.00;99.90;;;;;;6223906;23;20386;-96
2021/06/22 05:43:08;;;;;;;1782.85;118.97;;;15.00;99.90;;;;;;6228768;23;20382;-96
2021/06/22 05:45:41;;;;;;;559.90;66.25;;;15.00;99.90;;;;;;6241678;22;20409;-96
2021/06/22 05:48:10;;;;;;;524.88;65.88;;;15.00;99.90;;;;;;6282027;22;20373;-95
2021/06/22 05:50:38;;;;;;;201.57;46.35;;;15.00;99.90;;;;;;6280536;22;20413;-96
2021/06/22 05:53:05;;;;;;;290.20;52.58;;;15.00;99.90;;;;;;6281332;22;20686;-96
2021/06/22 05:55:32;;;;;;;153.38;48.30;;;15.10;99.90;;;;;;6280138;22;20379;-96
2021/06/22 05:58:00;;;;;;;211.33;48.53;;;15.10;99.90;;;;;;6280817;22;20695;-96
2021/06/22 06:00:31;;;;;;;380.70;56.33;;;15.10;99.90;;;;;;6281496;22;20379;-96
2021/06/22 06:03:00;;;;;;;107.60;43.33;;;15.10;99.90;;;;;;6281511;22;20401;-96
2021/06/22 06:05:27;;;;;;;607.22;65.32;;;15.20;99.90;;;;;;6279787;22;20414;-96
2021/06/22 06:07:55;;;;;;;89.60;40.08;;;15.20;99.90;;;;;;6279984;22;20406;-96
2021/06/22 06:10:23;;;;;;;92.30;38.83;;;15.30;99.90;;;;;;6281026;22;20383;-96
2021/06/22 06:12:51;;;;;;;145.52;41.33;;;15.20;99.90;;;;;;6282470;22;20443;-94
2021/06/22 06:15:19;;;;;;;95.97;38.75;;;15.20;99.90;;;;;;6282237;22;20884;-95
2021/06/22 06:17:47;;;;;;;80.80;38.58;;;15.20;99.90;;;;;;6282399;22;20960;-95
2021/06/22 06:20:15;;;;;;;77.10;36.60;;;15.30;99.90;;;;;;6283000;22;20393;-96
2021/06/22 06:22:46;;;;;;;77.67;37.33;;;15.30;99.90;;;;;;6282021;22;20886;-96
2021/06/22 06:25:27;;;;;;;76.72;35.30;;;15.30;99.90;;;;;;6282395;22;20398;-96
2021/06/22 06:28:17;;;;;;;68.05;34.75;;;15.40;99.90;;;;;;6285783;22;20382;-96
2021/06/22 06:30:46;;;;;;;66.50;35.08;;;15.30;99.90;;;;;;6284009;22;20386;-96
2021/06/22 06:33:13;;;;;;;62.38;32.15;;;15.40;99.90;;;;;;6283878;22;20833;-94
2021/06/22 06:35:40;;;;;;;65.50;33.35;;;15.50;99.90;;;;;;6281736;22;20373;-95
2021/06/22 06:38:45;;;;;;;55.65;30.85;;;15.60;99.90;;;;;;6281015;22;20389;-96
2021/06/22 06:41:31;;;;;;;47.47;25.80;;;15.90;99.90;;;;;;6286224;22;20371;-96
2021/06/22 06:43:58;;;;;;;52.08;26.25;;;15.90;99.90;;;;;;6281333;22;20383;-93
2021/06/22 06:46:25;;;;;;;49.63;26.60;;;15.90;99.90;;;;;;6281829;22;20389;-94
2021/06/22 06:48:52;;;;;;;45.17;23.95;;;16.10;99.90;;;;;;6282026;22;20378;-95
2021/06/22 06:51:23;;;;;;;39.22;21.98;;;16.20;99.90;;;;;;6282885;22;20871;-94
2021/06/22 06:53:53;;;;;;;35.50;19.58;;;16.20;99.90;;;;;;6284045;22;20723;-94
2021/06/22 06:56:20;;;;;;;34.60;20.30;;;16.30;99.90;;;;;;6283230;22;20413;-95
2021/06/22 06:58:55;;;;;;;31.98;17.67;;;16.50;99.90;;;;;;6310543;22;20565;-96
2021/06/22 07:01:22;;;;;;;29.55;15.23;;;16.70;99.90;;;;;;6285056;22;20386;-95
2021/06/22 07:07:19;;;;;;;21.95;11.52;;;16.80;99.90;;;;;;6186855;23;20400;-93
2021/06/22 07:09:46;;;;;;;23.57;11.93;;;16.90;99.90;;;;;;6159828;23;20389;-96
2021/06/22 07:12:14;;;;;;;19.60;11.70;;;16.90;99.90;;;;;;6163577;23;20878;-96
2021/06/22 07:14:41;;;;;;;16.92;8.15;;;17.10;99.90;;;;;;6271097;22;20390;-95
2021/06/22 07:17:08;;;;;;;20.45;9.50;;;17.10;99.90;;;;;;6281250;22;20394;-94
2021/06/22 07:19:35;;;;;;;17.60;7.13;;;17.20;99.90;;;;;;6281315;22;20415;-93
2021/06/22 07:22:09;;;;;;;14.60;6.88;;;17.20;99.90;;;;;;6281068;22;20759;-94
2021/06/22 07:27:04;;;;;;;16.55;6.40;;;17.00;99.90;;;;;;6318964;22;20382;-96
2021/06/22 07:29:31;;;;;;;16.65;9.00;;;16.90;99.90;;;;;;6284177;22;20409;-94
2021/06/22 07:31:58;;;;;;;13.65;6.97;;;17.10;99.90;;;;;;6287039;22;20379;-94
2021/06/22 07:34:25;;;;;;;11.95;4.57;;;17.40;99.90;;;;;;6281784;22;20863;-94
2021/06/22 07:36:52;;;;;;;13.47;4.83;;;17.60;99.90;;;;;;6281396;22;20516;-93
2021/06/22 07:39:22;;;;;;;8.63;4.90;;;17.60;99.90;;;;;;6280795;22;20379;-96
2021/06/22 07:41:52;;;;;;;14.67;5.33;;;17.70;99.90;;;;;;6283050;22;20382;-93
2021/06/22 07:44:19;;;;;;;12.07;4.55;;;17.80;99.90;;;;;;6281837;22;20369;-93
2021/06/22 07:46:52;;;;;;;14.57;4.45;;;17.80;99.90;;;;;;6281720;22;20367;-95
2021/06/22 07:49:20;;;;;;;11.20;4.18;;;17.90;99.90;;;;;;6280931;22;20430;-92
2021/06/22 07:51:50;;;;;;;10.65;3.78;;;17.90;99.90;;;;;;6281281;22;20387;-94
2021/06/22 07:54:17;;;;;;;15.10;4.53;;;17.90;99.90;;;;;;6280339;22;20378;-93
2021/06/22 07:56:44;;;;;;;7.70;4.07;;;17.90;99.90;;;;;;6281294;22;20367;-92
2021/06/22 07:59:11;;;;;;;8.82;4.55;;;18.10;99.90;;;;;;6280762;22;20881;-92
2021/06/22 08:01:38;;;;;;;14.15;5.40;;;18.30;99.90;;;;;;6280801;22;20395;-92
2021/06/22 08:04:05;;;;;;;8.52;4.30;;;18.40;99.90;;;;;;6281708;22;20386;-94
2021/06/22 08:06:32;;;;;;;11.00;4.05;;;18.50;99.90;;;;;;6282189;22;20385;-92
2021/06/22 08:08:59;;;;;;;8.65;4.22;;;18.40;99.90;;;;;;6287031;22;20363;-93
2021/06/22 08:11:26;;;;;;;8.00;4.15;;;18.50;99.90;;;;;;6286009;22;20867;-95
2021/06/22 08:13:53;;;;;;;11.93;4.43;;;18.80;99.90;;;;;;6281537;22;20863;-95
2021/06/22 08:16:20;;;;;;;9.57;4.33;;;18.80;99.90;;;;;;6281753;22;20462;-96
2021/06/22 08:18:48;;;;;;;9.32;4.47;;;18.90;99.90;;;;;;6283173;22;20964;-95
2021/06/22 08:21:15;;;;;;;10.95;4.47;;;18.70;99.90;;;;;;6285508;22;20448;-95
2021/06/22 08:23:45;;;;;;;7.55;3.70;;;18.70;99.90;;;;;;6285827;22;20386;-96
2021/06/22 08:26:15;;;;;;;8.57;4.38;;;18.90;99.90;;;;;;6275418;22;20396;-96
2021/06/22 08:28:44;;;;;;;10.53;4.03;;;19.10;99.90;;;;;;6254353;22;20465;-96
2021/06/22 08:31:18;;;;;;;7.15;3.40;;;19.30;99.90;;;;;;6254348;22;20392;-96
2021/06/22 08:33:51;;;;;;;13.05;2.70;;;19.80;99.90;;;;;;6261580;22;20384;-96
2021/06/22 08:36:21;;;;;;;4.38;1.90;;;20.00;99.90;;;;;;6252464;22;20388;-96
2021/06/22 08:38:54;;;;;;;8.77;2.53;;;20.10;99.90;;;;;;6259966;22;20407;-96
2021/06/22 08:41:58;;;;;;;6.35;2.10;;;20.10;99.90;;;;;;6260861;22;20388;-96
2021/06/22 08:47:30;;;;;;;6.82;2.33;;;20.00;99.90;;;;;;6268728;22;20391;-95
2021/06/22 08:50:24;;;;;;;10.60;2.42;;;20.00;99.90;;;;;;6265766;22;20412;-96
2021/06/22 08:53:00;;;;;;;7.35;2.10;;;19.80;99.90;;;;;;6117511;23;20399;-96
2021/06/22 09:09:32;;;;;;;6.60;2.17;;;21.30;99.90;;;;;;6322598;22;20400;-96
2021/06/22 09:12:06;;;;;;;8.40;2.17;;;21.20;99.90;;;;;;6317799;22;20395;-96
2021/06/22 09:14:38;;;;;;;9.47;2.10;;;21.30;99.90;;;;;;6311072;22;20377;-95
2021/06/22 09:17:06;;;;;;;6.82;2.30;;;21.30;99.90;;;;;;6312153;22;20387;-95
2021/06/22 09:19:35;;;;;;;4.78;1.85;;;21.40;99.90;;;;;;6312316;22;20386;-95
2021/06/22 09:22:18;;;;;;;6.20;1.70;;;21.60;99.90;;;;;;6311320;22;20683;-94
2021/06/22 09:25:08;;;;;;;5.50;2.15;;;21.70;99.90;;;;;;6311253;22;20372;-94
2021/06/22 09:27:50;;;;;;;8.05;2.30;;;21.60;99.90;;;;;;6311530;22;20389;-95
2021/06/22 10:06:18;;;;;;;7.20;1.45;;;22.90;99.90;;;;;;6302708;22;20382;-95
2021/06/22 10:08:53;;;;;;;6.82;1.60;;;22.90;99.90;;;;;;6284020;22;20369;-94
2021/06/22 10:11:34;;;;;;;6.32;1.80;;;22.90;99.90;;;;;;6282916;22;20386;-95
2021/06/22 10:14:03;;;;;;;7.15;2.20;;;23.10;99.90;;;;;;6282650;22;20378;-93
2021/06/22 10:16:33;;;;;;;4.63;1.70;;;23.10;99.90;;;;;;6278240;22;20378;-94
2021/06/22 10:19:05;;;;;;;9.27;1.60;;;23.30;99.90;;;;;;6283930;22;20403;-94
2021/06/22 10:21:34;;;;;;;4.35;1.60;;;23.30;99.90;;;;;;6283640;22;20382;-93
2021/06/22 10:24:03;;;;;;;4.35;1.55;;;23.10;99.90;;;;;;6281333;22;20374;-94
2021/06/22 10:26:30;;;;;;;6.65;1.80;;;22.80;99.90;;;;;;6281778;22;20395;-93
2021/06/22 10:29:00;;;;;;;4.38;1.95;;;22.60;99.90;;;;;;6281873;22;20379;-93
2021/06/22 10:31:29;;;;;;;6.03;1.70;;;22.70;99.90;;;;;;6282226;22;20692;-93
2021/06/22 10:33:57;;;;;;;3.72;1.50;;;22.70;99.90;;;;;;6282053;22;20405;-93
2021/06/22 10:36:31;;;;;;;4.13;1.63;;;23.00;99.90;;;;;;6281474;22;20392;-93
2021/06/22 10:39:06;;;;;;;3.22;1.50;;;23.00;99.90;;;;;;6281928;22;20394;-93
2021/06/22 10:41:41;;;;;;;4.65;1.50;;;23.00;99.90;;;;;;6281502;22;20379;-94
2021/06/22 10:44:35;;;;;;;5.85;1.80;;;23.40;99.90;;;;;;6281890;22;20379;-93
2021/06/22 10:47:25;;;;;;;7.55;1.90;;;23.70;99.90;;;;;;6267066;22;20385;-94
2021/06/22 10:50:18;;;;;;;5.17;1.87;;;23.50;99.90;;;;;;6281633;22;20761;-93
2021/06/22 10:52:54;;;;;;;5.68;1.90;;;23.30;99.90;;;;;;6281974;22;20378;-94
2021/06/22 10:55:28;;;;;;;4.43;1.60;;;23.20;99.90;;;;;;6281965;22;20897;-94
2021/06/22 10:58:01;;;;;;;7.00;1.88;;;23.30;99.90;;;;;;6282535;22;20708;-96
2021/06/22 11:00:43;;;;;;;3.80;1.60;;;23.50;99.90;;;;;;6290510;22;20418;-96
2021/06/22 11:03:30;;;;;;;7.53;1.97;;;23.60;99.90;;;;;;6292031;22;20435;-96
2021/06/22 11:06:12;;;;;;;2.40;1.35;;;23.50;99.90;;;;;;6289779;22;20982;-96
2021/06/22 11:08:42;;;;;;;5.40;1.73;;;23.60;99.90;;;;;;6320856;22;20446;-96
2021/06/22 11:11:09;;;;;;;3.03;1.70;;;23.40;99.90;;;;;;6291478;22;20489;-96
2021/06/22 11:13:39;;;;;;;4.85;1.90;;;23.50;99.90;;;;;;6285459;22;20389;-96
2021/06/22 11:16:21;;;;;;;3.28;1.77;;;23.70;99.90;;;;;;6283301;22;20386;-96
2021/06/22 11:18:55;;;;;;;7.00;2.00;;;23.90;99.90;;;;;;6284909;22;20404;-96
2021/06/22 11:21:31;;;;;;;7.82;1.77;;;24.10;99.90;;;;;;6283253;22;20375;-96
2021/06/22 11:24:14;;;;;;;5.75;1.80;;;24.20;99.90;;;;;;6284384;22;20420;-96
2021/06/22 11:26:42;;;;;;;4.70;1.90;;;24.20;99.90;;;;;;6284135;22;20703;-96
2021/06/22 11:29:14;;;;;;;3.85;1.67;;;24.40;99.90;;;;;;6284245;22;20379;-96
2021/06/22 11:31:51;;;;;;;5.07;1.63;;;24.50;99.90;;;;;;6286607;22;20464;-96
2021/06/22 11:34:32;;;;;;;4.77;1.50;;;24.70;99.90;;;;;;6285082;22;20453;-96
2021/06/22 11:37:06;;;;;;;3.38;1.55;;;24.70;99.90;;;;;;6285289;22;20931;-95
2021/06/22 11:39:34;;;;;;;5.38;1.63;;;24.80;99.90;;;;;;6289585;22;20700;-96
2021/06/22 11:42:16;;;;;;;4.07;1.48;;;24.50;99.90;;;;;;6282825;22;20460;-96
2021/06/22 11:44:53;;;;;;;5.15;1.70;;;24.50;99.90;;;;;;6284919;22;20375;-95
2021/06/22 11:47:26;;;;;;;4.03;1.38;;;24.50;99.90;;;;;;6282751;22;20387;-96
2021/06/22 11:49:55;;;;;;;3.17;1.42;;;24.90;99.90;;;;;;6284145;22;20770;-96
2021/06/22 11:52:37;;;;;;;4.38;1.70;;;25.20;99.90;;;;;;6284139;22;20462;-96
2021/06/22 11:55:14;;;;;;;5.10;1.65;;;25.50;99.90;;;;;;6283634;22;20378;-96
2021/06/22 11:57:50;;;;;;;4.10;1.52;;;25.40;99.90;;;;;;6284249;22;20470;-96
2021/06/22 12:00:23;;;;;;;5.63;1.40;;;25.70;99.90;;;;;;6282571;22;20861;-96
2021/06/22 12:02:51;;;;;;;6.03;1.42;;;25.50;99.90;;;;;;6282808;22;20465;-95
2021/06/22 12:05:21;;;;;;;4.77;1.60;;;25.20;99.90;;;;;;6282542;22;20383;-96
2021/06/22 12:07:54;;;;;;;6.47;1.63;;;25.10;99.90;;;;;;6284333;22;20462;-96
2021/06/22 12:10:25;;;;;;;3.78;1.70;;;24.90;99.90;;;;;;6286176;22;20465;-96
2021/06/22 12:12:53;;;;;;;3.05;1.60;;;25.40;99.90;;;;;;6286774;22;20413;-96
2021/06/22 12:15:36;;;;;;;3.60;1.40;;;25.90;99.90;;;;;;6288750;22;20383;-96
2021/06/22 12:18:13;;;;;;;3.88;1.38;;;26.40;99.90;;;;;;6291997;22;20394;-95
2021/06/22 12:20:45;;;;;;;5.63;1.50;;;26.90;99.90;;;;;;6289932;22;20378;-96
2021/06/22 12:23:17;;;;;;;4.25;1.70;;;26.90;99.90;;;;;;6290642;22;20459;-96
2021/06/22 12:25:57;;;;;;;5.20;1.52;;;26.30;99.90;;;;;;6272009;22;20386;-96
2021/06/22 12:28:30;;;;;;;5.30;1.60;;;26.00;99.90;;;;;;6289335;22;20776;-96
2021/06/22 12:30:59;;;;;;;4.18;1.67;;;26.30;99.90;;;;;;6293995;22;20886;-96
2021/06/22 12:34:06;;;;;;;6.90;1.70;;;27.10;99.90;;;;;;6305497;22;20366;-96
2021/06/22 12:36:50;;;;;;;4.77;1.70;;;27.80;99.90;;;;;;6247490;22;20370;-96
2021/06/22 12:39:31;;;;;;;2.65;1.33;;;28.60;99.90;;;;;;6296898;22;20458;-96
2021/06/22 12:42:31;;;;;;;4.57;1.73;;;27.90;99.90;;;;;;6248597;22;20369;-96
2021/06/22 12:44:59;;;;;;;3.92;1.70;;;27.00;99.90;;;;;;6279105;22;20413;-96
2021/06/22 12:47:27;;;;;;;3.58;1.60;;;26.00;99.90;;;;;;6274762;22;20477;-96
2021/06/22 12:49:58;;;;;;;3.35;1.60;;;25.90;99.90;;;;;;6294886;22;20388;-96
2021/06/22 12:52:28;;;;;;;7.25;2.00;;;26.50;99.90;;;;;;6295982;22;20405;-96
2021/06/22 12:54:55;;;;;;;5.57;1.70;;;27.20;99.90;;;;;;6267607;22;20469;-96
2021/06/22 12:57:23;;;;;;;5.33;1.50;;;28.00;99.90;;;;;;6294567;22;20719;-96
2021/06/22 12:59:52;;;;;;;5.00;1.70;;;28.60;99.90;;;;;;6299613;22;20361;-96
2021/06/22 13:02:55;;;;;;;4.10;1.40;;;29.40;99.90;;;;;;6300737;22;20386;-96
2021/06/22 13:06:26;;;;;;;5.40;1.43;;;29.50;99.90;;;;;;6109671;23;20400;-96
2021/06/22 13:09:35;;;;;;;5.13;1.50;;;29.10;99.90;;;;;;6112329;23;20452;-96
2021/06/22 13:12:34;;;;;;;5.75;1.40;;;28.80;99.90;;;;;;6112357;23;20421;-96
2021/06/22 13:15:29;;;;;;;9.15;1.65;;;28.60;99.90;;;;;;6247762;22;20417;-94
2021/06/22 13:17:56;;;;;;;8.20;1.73;;;28.70;99.90;;;;;;6285008;22;20810;-96
2021/06/22 13:20:31;;;;;;;5.43;1.77;;;29.30;99.90;;;;;;6286852;22;20382;-96
2021/06/22 13:23:06;;;;;;;4.88;1.55;;;29.70;99.90;;;;;;6289269;22;20382;-96
2021/06/22 13:25:42;;;;;;;5.95;1.65;;;29.50;99.10;;;;;;6293473;22;20765;-96
2021/06/22 13:28:16;;;;;;;4.20;1.67;;;29.30;99.60;;;;;;6285774;22;20493;-96
2021/06/22 13:30:48;;;;;;;5.65;1.50;;;29.20;99.90;;;;;;6262478;22;20375;-96
2021/06/22 13:33:20;;;;;;;5.47;1.60;;;29.40;99.40;;;;;;6284391;22;20405;-96
2021/06/22 13:35:53;;;;;;;5.25;1.67;;;29.40;98.00;;;;;;6285874;22;20414;-96
2021/06/22 13:38:24;;;;;;;8.80;1.90;;;29.00;99.90;;;;;;6284187;22;20378;-96
2021/06/22 13:40:53;;;;;;;4.22;1.77;;;29.30;99.90;;;;;;6287564;22;20386;-96
2021/06/22 13:43:25;;;;;;;4.55;1.70;;;30.10;99.20;;;;;;6284767;22;20923;-96
2021/06/22 13:45:54;;;;;;;7.38;1.50;;;30.20;97.70;;;;;;6284356;22;20469;-96
2021/06/22 13:48:28;;;;;;;7.40;1.73;;;30.40;96.30;;;;;;6285207;22;20378;-96
2021/06/22 13:51:01;;;;;;;3.75;1.50;;;30.30;92.90;;;;;;6284761;22;20387;-96
2021/06/22 13:53:46;;;;;;;3.88;1.50;;;30.40;96.10;;;;;;6285751;22;20443;-96
2021/06/22 13:56:17;;;;;;;6.63;1.38;;;30.80;96.80;;;;;;6288286;22;20397;-96
2021/06/22 13:58:45;;;;;;;3.45;1.55;;;30.60;93.90;;;;;;6283948;22;20378;-96
2021/06/22 14:04:37;;;;;;;6.50;1.48;;;30.60;91.80;;;;;;6232001;23;20376;-96
2021/06/22 14:07:05;;;;;;;5.40;1.65;;;30.90;93.00;;;;;;6253520;23;20401;-96
2021/06/22 14:09:57;;;;;;;3.60;1.50;;;31.00;92.70;;;;;;6253266;23;20763;-96
2021/06/22 14:12:24;;;;;;;5.80;1.70;;;31.10;90.10;;;;;;6248902;23;20432;-96
2021/06/22 14:15:09;;;;;;;6.97;1.60;;;31.30;91.40;;;;;;6250966;23;20382;-96
2021/06/22 14:17:41;;;;;;;8.47;1.53;;;31.20;92.40;;;;;;6254387;23;20405;-96
2021/06/22 14:20:22;;;;;;;5.88;1.70;;;31.10;91.80;;;;;;6261423;22;20421;-96
2021/06/22 14:22:59;;;;;;;7.70;1.87;;;30.90;91.30;;;;;;6236067;22;20405;-96